sensor_id;sensor_type;location;lat;lon;timestamp;temperature;humidity
78896;HTU21D;68284;59.124;37.910;2023-05-19T00:02:02;10.80;63.72
78896;HTU21D;68284;59.124;37.910;2023-05-19T00:04:30;10.78;63.68
78896;HTU21D;68284;59.124;37.910;2023-05-19T00:06:58;10.78;63.44
78896;HTU21D;68284;59.124;37.910;2023-05-19T00:09:25;10.77;63.34
78896;HTU21D;68284;59.124;37.910;2023-05-19T00:11:51;10.77;63.18
78896;HTU21D;68284;59.124;37.910;2023-05-19T00:14:18;10.75;63.11
78896;HTU21D;68284;59.124;37.910;2023-05-19T00:16:44;10.77;62.93
78896;HTU21D;68284;59.124;37.910;2023-05-19T00:19:10;10.77;62.92
78896;HTU21D;68284;59.124;37.910;2023-05-19T00:21:37;10.74;62.89
78896;HTU21D;68284;59.124;37.910;2023-05-19T00:24:04;10.73;62.95
78896;HTU21D;68284;59.124;37.910;2023-05-19T00:26:31;10.71;62.93
78896;HTU21D;68284;59.124;37.910;2023-05-19T00:29:04;10.71;62.77
78896;HTU21D;68284;59.124;37.910;2023-05-19T00:31:30;10.69;62.68
78896;HTU21D;68284;59.124;37.910;2023-05-19T00:34:00;10.71;62.51
78896;HTU21D;68284;59.124;37.910;2023-05-19T00:36:26;10.70;62.21
78896;HTU21D;68284;59.124;37.910;2023-05-19T00:38:52;10.71;62.15
78896;HTU21D;68284;59.124;37.910;2023-05-19T00:41:19;10.72;61.99
78896;HTU21D;68284;59.124;37.910;2023-05-19T00:43:45;10.71;61.89
78896;HTU21D;68284;59.124;37.910;2023-05-19T00:46:11;10.71;61.88
78896;HTU21D;68284;59.124;37.910;2023-05-19T00:48:38;10.69;61.86
78896;HTU21D;68284;59.124;37.910;2023-05-19T00:51:04;10.69;61.93
78896;HTU21D;68284;59.124;37.910;2023-05-19T00:53:32;10.67;61.92
78896;HTU21D;68284;59.124;37.910;2023-05-19T00:56:00;10.66;61.92
78896;HTU21D;68284;59.124;37.910;2023-05-19T00:58:27;10.65;61.82
78896;HTU21D;68284;59.124;37.910;2023-05-19T01:00:59;10.63;61.86
78896;HTU21D;68284;59.124;37.910;2023-05-19T01:03:33;10.63;61.96
78896;HTU21D;68284;59.124;37.910;2023-05-19T01:06:01;10.63;62.04
78896;HTU21D;68284;59.124;37.910;2023-05-19T01:08:35;10.64;62.08
78896;HTU21D;68284;59.124;37.910;2023-05-19T01:11:05;10.63;62.05
78896;HTU21D;68284;59.124;37.910;2023-05-19T01:13:33;10.64;62.03
78896;HTU21D;68284;59.124;37.910;2023-05-19T01:26:58;10.67;61.56
78896;HTU21D;68284;59.124;37.910;2023-05-19T01:32:18;10.69;61.41
78896;HTU21D;68284;59.124;37.910;2023-05-19T01:34:48;10.70;61.37
78896;HTU21D;68284;59.124;37.910;2023-05-19T01:37:16;10.72;61.20
78896;HTU21D;68284;59.124;37.910;2023-05-19T01:39:43;10.72;61.03
78896;HTU21D;68284;59.124;37.910;2023-05-19T01:42:11;10.72;60.86
78896;HTU21D;68284;59.124;37.910;2023-05-19T01:44:39;10.72;60.73
78896;HTU21D;68284;59.124;37.910;2023-05-19T01:47:06;10.70;60.62
78896;HTU21D;68284;59.124;37.910;2023-05-19T01:49:33;10.70;60.30
78896;HTU21D;68284;59.124;37.910;2023-05-19T01:51:59;10.71;59.96
78896;HTU21D;68284;59.124;37.910;2023-05-19T01:54:26;10.72;59.57
78896;HTU21D;68284;59.124;37.910;2023-05-19T01:57:09;10.73;59.35
78896;HTU21D;68284;59.124;37.910;2023-05-19T01:59:45;10.74;59.22
78896;HTU21D;68284;59.124;37.910;2023-05-19T02:02:54;10.77;58.76
78896;HTU21D;68284;59.124;37.910;2023-05-19T02:05:25;10.81;58.79
78896;HTU21D;68284;59.124;37.910;2023-05-19T02:08:09;10.84;58.48
78896;HTU21D;68284;59.124;37.910;2023-05-19T02:10:40;10.86;58.38
78896;HTU21D;68284;59.124;37.910;2023-05-19T02:13:10;10.88;58.29
78896;HTU21D;68284;59.124;37.910;2023-05-19T02:15:40;10.90;58.30
78896;HTU21D;68284;59.124;37.910;2023-05-19T02:18:09;10.94;58.29
78896;HTU21D;68284;59.124;37.910;2023-05-19T02:20:37;10.96;58.10
78896;HTU21D;68284;59.124;37.910;2023-05-19T02:23:06;10.98;57.92
78896;HTU21D;68284;59.124;37.910;2023-05-19T02:25:32;11.00;57.58
78896;HTU21D;68284;59.124;37.910;2023-05-19T02:27:59;11.03;57.46
78896;HTU21D;68284;59.124;37.910;2023-05-19T02:30:28;11.09;57.10
78896;HTU21D;68284;59.124;37.910;2023-05-19T02:32:59;11.12;56.71
78896;HTU21D;68284;59.124;37.910;2023-05-19T02:35:25;11.18;56.28
78896;HTU21D;68284;59.124;37.910;2023-05-19T02:37:52;11.24;55.94
78896;HTU21D;68284;59.124;37.910;2023-05-19T02:40:19;11.30;55.84
78896;HTU21D;68284;59.124;37.910;2023-05-19T02:42:45;11.36;55.69
78896;HTU21D;68284;59.124;37.910;2023-05-19T02:45:11;11.43;55.42
78896;HTU21D;68284;59.124;37.910;2023-05-19T02:47:40;11.49;55.09
78896;HTU21D;68284;59.124;37.910;2023-05-19T02:50:06;11.54;54.52
78896;HTU21D;68284;59.124;37.910;2023-05-19T02:52:32;11.58;54.81
78896;HTU21D;68284;59.124;37.910;2023-05-19T02:54:59;11.62;54.63
78896;HTU21D;68284;59.124;37.910;2023-05-19T02:57:25;11.67;54.45
78896;HTU21D;68284;59.124;37.910;2023-05-19T02:59:51;11.69;54.33
78896;HTU21D;68284;59.124;37.910;2023-05-19T03:02:18;11.73;54.49
78896;HTU21D;68284;59.124;37.910;2023-05-19T03:04:44;11.76;54.39
78896;HTU21D;68284;59.124;37.910;2023-05-19T03:07:10;11.79;54.23
78896;HTU21D;68284;59.124;37.910;2023-05-19T03:09:39;11.81;54.21
78896;HTU21D;68284;59.124;37.910;2023-05-19T03:12:05;11.85;54.04
78896;HTU21D;68284;59.124;37.910;2023-05-19T03:14:33;11.87;53.94
78896;HTU21D;68284;59.124;37.910;2023-05-19T03:16:59;11.89;53.88
78896;HTU21D;68284;59.124;37.910;2023-05-19T03:19:26;11.90;53.94
78896;HTU21D;68284;59.124;37.910;2023-05-19T03:21:52;11.92;53.94
78896;HTU21D;68284;59.124;37.910;2023-05-19T03:24:19;11.93;53.94
78896;HTU21D;68284;59.124;37.910;2023-05-19T03:26:45;11.98;54.04
78896;HTU21D;68284;59.124;37.910;2023-05-19T03:29:11;12.03;54.14
78896;HTU21D;68284;59.124;37.910;2023-05-19T03:31:38;12.11;54.32
78896;HTU21D;68284;59.124;37.910;2023-05-19T03:34:04;12.16;54.43
78896;HTU21D;68284;59.124;37.910;2023-05-19T03:36:31;12.25;54.46
78896;HTU21D;68284;59.124;37.910;2023-05-19T03:38:57;12.32;54.43
78896;HTU21D;68284;59.124;37.910;2023-05-19T03:41:24;12.37;54.33
78896;HTU21D;68284;59.124;37.910;2023-05-19T03:43:50;12.46;54.26
78896;HTU21D;68284;59.124;37.910;2023-05-19T03:46:18;12.51;54.24
78896;HTU21D;68284;59.124;37.910;2023-05-19T03:48:53;12.60;54.26
78896;HTU21D;68284;59.124;37.910;2023-05-19T03:51:49;12.69;54.19
78896;HTU21D;68284;59.124;37.910;2023-05-19T03:54:38;12.75;54.14
78896;HTU21D;68284;59.124;37.910;2023-05-19T03:57:04;12.77;54.07
78896;HTU21D;68284;59.124;37.910;2023-05-19T03:59:31;12.77;54.02
78896;HTU21D;68284;59.124;37.910;2023-05-19T04:01:57;12.77;54.10
78896;HTU21D;68284;59.124;37.910;2023-05-19T04:04:25;12.81;54.22
78896;HTU21D;68284;59.124;37.910;2023-05-19T04:06:51;12.85;54.32
78896;HTU21D;68284;59.124;37.910;2023-05-19T04:09:18;12.89;54.47
78896;HTU21D;68284;59.124;37.910;2023-05-19T04:11:44;12.92;54.63
78896;HTU21D;68284;59.124;37.910;2023-05-19T04:14:10;12.96;54.68
78896;HTU21D;68284;59.124;37.910;2023-05-19T04:16:37;12.99;54.78
78896;HTU21D;68284;59.124;37.910;2023-05-19T04:19:03;13.01;54.79
78896;HTU21D;68284;59.124;37.910;2023-05-19T04:21:29;13.07;54.70
78896;HTU21D;68284;59.124;37.910;2023-05-19T04:23:55;13.09;54.63
78896;HTU21D;68284;59.124;37.910;2023-05-19T04:26:25;13.16;54.62
78896;HTU21D;68284;59.124;37.910;2023-05-19T04:28:52;13.23;54.54
78896;HTU21D;68284;59.124;37.910;2023-05-19T04:31:19;13.27;54.45
78896;HTU21D;68284;59.124;37.910;2023-05-19T04:33:46;13.35;54.41
78896;HTU21D;68284;59.124;37.910;2023-05-19T04:36:15;13.43;54.50
78896;HTU21D;68284;59.124;37.910;2023-05-19T04:38:46;13.51;54.67
78896;HTU21D;68284;59.124;37.910;2023-05-19T04:41:13;13.61;54.60
78896;HTU21D;68284;59.124;37.910;2023-05-19T04:43:42;13.68;54.46
78896;HTU21D;68284;59.124;37.910;2023-05-19T04:46:10;13.74;54.44
78896;HTU21D;68284;59.124;37.910;2023-05-19T04:48:38;13.77;54.45
78896;HTU21D;68284;59.124;37.910;2023-05-19T04:51:05;13.77;54.58
78896;HTU21D;68284;59.124;37.910;2023-05-19T04:53:32;13.78;54.78
78896;HTU21D;68284;59.124;37.910;2023-05-19T04:55:58;13.82;54.75
78896;HTU21D;68284;59.124;37.910;2023-05-19T04:58:29;13.89;54.46
78896;HTU21D;68284;59.124;37.910;2023-05-19T05:00:56;13.95;54.25
78896;HTU21D;68284;59.124;37.910;2023-05-19T05:03:26;14.00;54.07
78896;HTU21D;68284;59.124;37.910;2023-05-19T05:05:52;14.06;53.69
78896;HTU21D;68284;59.124;37.910;2023-05-19T05:08:18;14.18;52.92
78896;HTU21D;68284;59.124;37.910;2023-05-19T05:10:49;14.33;52.97
78896;HTU21D;68284;59.124;37.910;2023-05-19T05:13:17;14.55;52.48
78896;HTU21D;68284;59.124;37.910;2023-05-19T05:15:44;14.79;51.95
78896;HTU21D;68284;59.124;37.910;2023-05-19T05:18:10;14.94;51.37
78896;HTU21D;68284;59.124;37.910;2023-05-19T05:20:37;15.02;51.19
78896;HTU21D;68284;59.124;37.910;2023-05-19T05:23:04;15.08;51.21
78896;HTU21D;68284;59.124;37.910;2023-05-19T05:25:32;15.23;51.04
78896;HTU21D;68284;59.124;37.910;2023-05-19T05:27:58;15.42;50.59
78896;HTU21D;68284;59.124;37.910;2023-05-19T05:30:30;15.58;49.99
78896;HTU21D;68284;59.124;37.910;2023-05-19T05:32:56;15.73;49.40
78896;HTU21D;68284;59.124;37.910;2023-05-19T05:35:30;15.86;48.88
78896;HTU21D;68284;59.124;37.910;2023-05-19T05:37:57;15.95;48.74
78896;HTU21D;68284;59.124;37.910;2023-05-19T05:40:23;15.98;48.79
78896;HTU21D;68284;59.124;37.910;2023-05-19T05:42:51;16.07;48.41
78896;HTU21D;68284;59.124;37.910;2023-05-19T05:45:21;16.18;48.15
78896;HTU21D;68284;59.124;37.910;2023-05-19T05:47:48;16.28;47.68
78896;HTU21D;68284;59.124;37.910;2023-05-19T05:50:15;16.32;47.02
78896;HTU21D;68284;59.124;37.910;2023-05-19T05:52:45;16.33;46.69
78896;HTU21D;68284;59.124;37.910;2023-05-19T05:55:13;16.30;46.44
78896;HTU21D;68284;59.124;37.910;2023-05-19T05:57:39;16.24;46.24
78896;HTU21D;68284;59.124;37.910;2023-05-19T06:00:09;16.16;46.21
78896;HTU21D;68284;59.124;37.910;2023-05-19T06:02:49;16.04;46.38
78896;HTU21D;68284;59.124;37.910;2023-05-19T06:05:16;15.99;46.59
78896;HTU21D;68284;59.124;37.910;2023-05-19T06:07:44;15.99;46.51
78896;HTU21D;68284;59.124;37.910;2023-05-19T06:10:14;15.99;46.43
78896;HTU21D;68284;59.124;37.910;2023-05-19T06:12:40;15.99;46.28
78896;HTU21D;68284;59.124;37.910;2023-05-19T06:15:12;15.97;46.21
78896;HTU21D;68284;59.124;37.910;2023-05-19T06:17:48;15.87;45.93
78896;HTU21D;68284;59.124;37.910;2023-05-19T06:20:14;15.76;45.70
78896;HTU21D;68284;59.124;37.910;2023-05-19T06:22:41;15.70;46.02
78896;HTU21D;68284;59.124;37.910;2023-05-19T06:25:08;15.65;45.36
78896;HTU21D;68284;59.124;37.910;2023-05-19T06:27:35;15.57;45.19
78896;HTU21D;68284;59.124;37.910;2023-05-19T06:30:02;15.53;45.25
78896;HTU21D;68284;59.124;37.910;2023-05-19T06:32:33;15.52;45.42
78896;HTU21D;68284;59.124;37.910;2023-05-19T06:34:59;15.53;45.25
78896;HTU21D;68284;59.124;37.910;2023-05-19T06:37:25;15.56;45.09
78896;HTU21D;68284;59.124;37.910;2023-05-19T06:39:52;15.63;44.91
78896;HTU21D;68284;59.124;37.910;2023-05-19T06:42:19;15.70;44.37
78896;HTU21D;68284;59.124;37.910;2023-05-19T06:45:04;15.78;43.84
78896;HTU21D;68284;59.124;37.910;2023-05-19T06:47:31;15.84;43.02
78896;HTU21D;68284;59.124;37.910;2023-05-19T06:49:58;15.87;42.81
78896;HTU21D;68284;59.124;37.910;2023-05-19T06:52:28;15.95;42.61
78896;HTU21D;68284;59.124;37.910;2023-05-19T06:54:55;16.00;42.47
78896;HTU21D;68284;59.124;37.910;2023-05-19T06:57:22;16.06;42.02
78896;HTU21D;68284;59.124;37.910;2023-05-19T06:59:48;16.08;41.62
78896;HTU21D;68284;59.124;37.910;2023-05-19T07:02:14;16.06;41.09
78896;HTU21D;68284;59.124;37.910;2023-05-19T07:04:41;16.03;41.68
78896;HTU21D;68284;59.124;37.910;2023-05-19T07:07:08;15.96;41.51
78896;HTU21D;68284;59.124;37.910;2023-05-19T07:09:35;15.91;41.66
78896;HTU21D;68284;59.124;37.910;2023-05-19T07:12:02;15.87;41.68
78896;HTU21D;68284;59.124;37.910;2023-05-19T07:14:29;15.82;41.68
78896;HTU21D;68284;59.124;37.910;2023-05-19T07:16:56;15.78;41.78
78896;HTU21D;68284;59.124;37.910;2023-05-19T07:19:22;15.72;41.84
78896;HTU21D;68284;59.124;37.910;2023-05-19T07:21:49;15.68;42.14
78896;HTU21D;68284;59.124;37.910;2023-05-19T07:24:15;15.61;42.16
78896;HTU21D;68284;59.124;37.910;2023-05-19T07:26:41;15.57;42.33
78896;HTU21D;68284;59.124;37.910;2023-05-19T07:29:08;15.55;42.09
78896;HTU21D;68284;59.124;37.910;2023-05-19T07:31:34;15.47;42.10
78896;HTU21D;68284;59.124;37.910;2023-05-19T07:34:00;15.38;42.40
78896;HTU21D;68284;59.124;37.910;2023-05-19T07:36:26;15.31;42.40
78896;HTU21D;68284;59.124;37.910;2023-05-19T07:38:52;15.29;42.45
78896;HTU21D;68284;59.124;37.910;2023-05-19T07:41:19;15.33;42.66
78896;HTU21D;68284;59.124;37.910;2023-05-19T07:43:46;15.46;42.65
78896;HTU21D;68284;59.124;37.910;2023-05-19T07:46:12;15.65;42.32
78896;HTU21D;68284;59.124;37.910;2023-05-19T07:48:38;15.76;42.29
78896;HTU21D;68284;59.124;37.910;2023-05-19T07:51:04;15.89;42.16
78896;HTU21D;68284;59.124;37.910;2023-05-19T07:53:35;16.00;41.78
78896;HTU21D;68284;59.124;37.910;2023-05-19T07:56:02;16.01;41.61
78896;HTU21D;68284;59.124;37.910;2023-05-19T07:58:28;16.02;41.58
78896;HTU21D;68284;59.124;37.910;2023-05-19T08:00:58;16.01;41.70
78896;HTU21D;68284;59.124;37.910;2023-05-19T08:03:25;15.98;41.84
78896;HTU21D;68284;59.124;37.910;2023-05-19T08:05:51;15.99;41.93
78896;HTU21D;68284;59.124;37.910;2023-05-19T08:08:17;16.01;41.84
78896;HTU21D;68284;59.124;37.910;2023-05-19T08:10:46;16.03;42.03
78896;HTU21D;68284;59.124;37.910;2023-05-19T08:13:12;16.05;41.67
78896;HTU21D;68284;59.124;37.910;2023-05-19T08:15:39;16.06;41.90
78896;HTU21D;68284;59.124;37.910;2023-05-19T08:18:05;16.16;41.91
78896;HTU21D;68284;59.124;37.910;2023-05-19T08:20:31;16.33;41.80
78896;HTU21D;68284;59.124;37.910;2023-05-19T08:22:58;16.44;41.61
78896;HTU21D;68284;59.124;37.910;2023-05-19T08:25:25;16.49;41.45
78896;HTU21D;68284;59.124;37.910;2023-05-19T08:27:51;16.49;41.19
78896;HTU21D;68284;59.124;37.910;2023-05-19T08:30:17;16.46;40.99
78896;HTU21D;68284;59.124;37.910;2023-05-19T08:32:43;16.40;40.87
78896;HTU21D;68284;59.124;37.910;2023-05-19T08:35:09;16.33;40.63
78896;HTU21D;68284;59.124;37.910;2023-05-19T08:37:36;16.31;40.83
78896;HTU21D;68284;59.124;37.910;2023-05-19T08:40:04;16.34;40.77
78896;HTU21D;68284;59.124;37.910;2023-05-19T08:42:31;16.43;40.63
78896;HTU21D;68284;59.124;37.910;2023-05-19T08:45:01;16.54;40.49
78896;HTU21D;68284;59.124;37.910;2023-05-19T08:47:28;16.64;40.19
78896;HTU21D;68284;59.124;37.910;2023-05-19T08:50:03;16.73;40.00
78896;HTU21D;68284;59.124;37.910;2023-05-19T08:55:27;16.99;39.65
78896;HTU21D;68284;59.124;37.910;2023-05-19T08:58:00;17.06;39.75
78896;HTU21D;68284;59.124;37.910;2023-05-19T09:00:27;17.03;39.82
78896;HTU21D;68284;59.124;37.910;2023-05-19T09:02:55;17.02;39.80
78896;HTU21D;68284;59.124;37.910;2023-05-19T09:05:22;16.95;39.85
78896;HTU21D;68284;59.124;37.910;2023-05-19T09:07:48;16.96;40.03
78896;HTU21D;68284;59.124;37.910;2023-05-19T09:10:14;16.94;40.08
78896;HTU21D;68284;59.124;37.910;2023-05-19T09:12:45;16.88;39.81
78896;HTU21D;68284;59.124;37.910;2023-05-19T09:15:16;16.81;40.03
78896;HTU21D;68284;59.124;37.910;2023-05-19T09:18:10;16.82;40.25
78896;HTU21D;68284;59.124;37.910;2023-05-19T09:20:38;16.90;40.12
78896;HTU21D;68284;59.124;37.910;2023-05-19T09:23:05;16.94;39.89
78896;HTU21D;68284;59.124;37.910;2023-05-19T09:25:32;17.02;39.68
78896;HTU21D;68284;59.124;37.910;2023-05-19T09:27:59;17.06;39.56
78896;HTU21D;68284;59.124;37.910;2023-05-19T09:30:25;17.05;39.64
78896;HTU21D;68284;59.124;37.910;2023-05-19T09:32:51;17.06;39.60
78896;HTU21D;68284;59.124;37.910;2023-05-19T09:35:17;17.13;39.61
78896;HTU21D;68284;59.124;37.910;2023-05-19T09:37:46;17.17;39.59
78896;HTU21D;68284;59.124;37.910;2023-05-19T09:40:14;17.17;39.46
78896;HTU21D;68284;59.124;37.910;2023-05-19T09:42:41;17.11;39.51
78896;HTU21D;68284;59.124;37.910;2023-05-19T09:45:09;17.03;39.58
78896;HTU21D;68284;59.124;37.910;2023-05-19T09:47:39;16.90;39.69
78896;HTU21D;68284;59.124;37.910;2023-05-19T09:50:08;16.78;39.98
78896;HTU21D;68284;59.124;37.910;2023-05-19T09:52:38;16.70;40.20
78896;HTU21D;68284;59.124;37.910;2023-05-19T09:55:09;16.61;40.38
78896;HTU21D;68284;59.124;37.910;2023-05-19T09:57:36;16.51;40.68
78896;HTU21D;68284;59.124;37.910;2023-05-19T10:00:07;16.43;41.04
78896;HTU21D;68284;59.124;37.910;2023-05-19T10:02:43;16.40;41.26
78896;HTU21D;68284;59.124;37.910;2023-05-19T10:05:12;16.40;41.32
78896;HTU21D;68284;59.124;37.910;2023-05-19T10:07:52;16.41;41.37
78896;HTU21D;68284;59.124;37.910;2023-05-19T10:10:20;16.41;41.43
78896;HTU21D;68284;59.124;37.910;2023-05-19T10:12:48;16.39;41.58
78896;HTU21D;68284;59.124;37.910;2023-05-19T10:15:16;16.35;41.78
78896;HTU21D;68284;59.124;37.910;2023-05-19T10:17:43;16.31;42.03
78896;HTU21D;68284;59.124;37.910;2023-05-19T10:20:12;16.27;42.37
78896;HTU21D;68284;59.124;37.910;2023-05-19T10:22:43;16.24;42.65
78896;HTU21D;68284;59.124;37.910;2023-05-19T10:25:10;16.20;42.89
78896;HTU21D;68284;59.124;37.910;2023-05-19T10:27:56;16.16;43.17
78896;HTU21D;68284;59.124;37.910;2023-05-19T10:30:39;16.10;43.45
78896;HTU21D;68284;59.124;37.910;2023-05-19T10:33:09;15.99;43.76
78896;HTU21D;68284;59.124;37.910;2023-05-19T10:38:41;15.72;44.58
78896;HTU21D;68284;59.124;37.910;2023-05-19T10:41:12;15.62;44.80
78896;HTU21D;68284;59.124;37.910;2023-05-19T10:46:58;15.52;45.04
78896;HTU21D;68284;59.124;37.910;2023-05-19T10:49:24;15.55;45.25
78896;HTU21D;68284;59.124;37.910;2023-05-19T10:51:54;15.58;45.09
78896;HTU21D;68284;59.124;37.910;2023-05-19T10:54:41;15.69;45.32
78896;HTU21D;68284;59.124;37.910;2023-05-19T10:57:17;15.76;44.97
78896;HTU21D;68284;59.124;37.910;2023-05-19T10:59:44;15.84;44.68
78896;HTU21D;68284;59.124;37.910;2023-05-19T11:02:37;15.87;44.48
78896;HTU21D;68284;59.124;37.910;2023-05-19T11:05:12;15.88;44.43
78896;HTU21D;68284;59.124;37.910;2023-05-19T11:07:43;15.87;44.45
78896;HTU21D;68284;59.124;37.910;2023-05-19T11:10:23;15.90;44.38
78896;HTU21D;68284;59.124;37.910;2023-05-19T11:12:49;15.95;44.25
78896;HTU21D;68284;59.124;37.910;2023-05-19T11:15:16;15.97;44.16
78896;HTU21D;68284;59.124;37.910;2023-05-19T11:17:47;15.98;44.08
78896;HTU21D;68284;59.124;37.910;2023-05-19T11:20:24;16.01;43.97
78896;HTU21D;68284;59.124;37.910;2023-05-19T11:23:08;16.04;44.03
78896;HTU21D;68284;59.124;37.910;2023-05-19T11:28:19;16.11;43.78
78896;HTU21D;68284;59.124;37.910;2023-05-19T11:30:47;16.11;43.74
78896;HTU21D;68284;59.124;37.910;2023-05-19T11:33:16;16.08;43.42
78896;HTU21D;68284;59.124;37.910;2023-05-19T11:35:47;16.06;43.22
78896;HTU21D;68284;59.124;37.910;2023-05-19T11:38:14;16.02;43.22
78896;HTU21D;68284;59.124;37.910;2023-05-19T11:40:42;16.00;43.33
78896;HTU21D;68284;59.124;37.910;2023-05-19T11:43:08;15.96;43.42
78896;HTU21D;68284;59.124;37.910;2023-05-19T11:45:35;15.89;43.61
78896;HTU21D;68284;59.124;37.910;2023-05-19T11:48:04;15.85;43.83
78896;HTU21D;68284;59.124;37.910;2023-05-19T11:50:31;15.80;44.08
78896;HTU21D;68284;59.124;37.910;2023-05-19T11:52:59;15.82;44.32
78896;HTU21D;68284;59.124;37.910;2023-05-19T11:55:26;15.82;44.38
78896;HTU21D;68284;59.124;37.910;2023-05-19T11:57:55;15.77;44.51
78896;HTU21D;68284;59.124;37.910;2023-05-19T12:00:25;15.73;44.61
78896;HTU21D;68284;59.124;37.910;2023-05-19T12:02:52;15.71;44.73
78896;HTU21D;68284;59.124;37.910;2023-05-19T12:05:23;15.72;44.83
78896;HTU21D;68284;59.124;37.910;2023-05-19T12:07:52;15.72;44.92
78896;HTU21D;68284;59.124;37.910;2023-05-19T12:10:37;15.73;45.15
78896;HTU21D;68284;59.124;37.910;2023-05-19T12:13:05;15.78;45.09
78896;HTU21D;68284;59.124;37.910;2023-05-19T12:15:33;15.78;45.13
78896;HTU21D;68284;59.124;37.910;2023-05-19T12:18:00;15.80;45.09
78896;HTU21D;68284;59.124;37.910;2023-05-19T12:20:28;15.81;45.06
78896;HTU21D;68284;59.124;37.910;2023-05-19T12:22:54;15.83;45.16
78896;HTU21D;68284;59.124;37.910;2023-05-19T12:25:21;15.83;45.29
78896;HTU21D;68284;59.124;37.910;2023-05-19T12:27:48;15.86;45.30
78896;HTU21D;68284;59.124;37.910;2023-05-19T12:30:15;15.85;45.22
78896;HTU21D;68284;59.124;37.910;2023-05-19T12:32:42;15.85;45.21
78896;HTU21D;68284;59.124;37.910;2023-05-19T12:35:09;15.82;45.24
78896;HTU21D;68284;59.124;37.910;2023-05-19T12:37:36;15.82;45.29
78896;HTU21D;68284;59.124;37.910;2023-05-19T12:40:06;15.82;45.35
78896;HTU21D;68284;59.124;37.910;2023-05-19T12:42:33;15.84;45.32
78896;HTU21D;68284;59.124;37.910;2023-05-19T12:45:02;15.85;45.28
78896;HTU21D;68284;59.124;37.910;2023-05-19T12:47:34;15.85;45.38
78896;HTU21D;68284;59.124;37.910;2023-05-19T12:50:05;15.87;45.49
78896;HTU21D;68284;59.124;37.910;2023-05-19T12:52:55;15.86;45.48
78896;HTU21D;68284;59.124;37.910;2023-05-19T12:55:23;15.84;45.37
78896;HTU21D;68284;59.124;37.910;2023-05-19T12:57:50;15.82;45.28
78896;HTU21D;68284;59.124;37.910;2023-05-19T13:00:22;15.81;45.22
78896;HTU21D;68284;59.124;37.910;2023-05-19T13:02:57;15.75;45.08
78896;HTU21D;68284;59.124;37.910;2023-05-19T13:05:32;15.70;44.99
78896;HTU21D;68284;59.124;37.910;2023-05-19T13:08:07;15.70;44.94
78896;HTU21D;68284;59.124;37.910;2023-05-19T13:10:34;15.63;45.04
78896;HTU21D;68284;59.124;37.910;2023-05-19T13:13:01;15.61;45.18
78896;HTU21D;68284;59.124;37.910;2023-05-19T13:15:29;15.62;45.20
78896;HTU21D;68284;59.124;37.910;2023-05-19T13:17:58;15.68;45.15
78896;HTU21D;68284;59.124;37.910;2023-05-19T13:20:24;15.77;44.93
78896;HTU21D;68284;59.124;37.910;2023-05-19T13:22:50;15.91;44.61
78896;HTU21D;68284;59.124;37.910;2023-05-19T13:25:17;16.07;44.45
78896;HTU21D;68284;59.124;37.910;2023-05-19T13:27:44;16.27;44.19
78896;HTU21D;68284;59.124;37.910;2023-05-19T13:30:11;16.46;43.87
78896;HTU21D;68284;59.124;37.910;2023-05-19T13:32:37;16.70;43.61
78896;HTU21D;68284;59.124;37.910;2023-05-19T13:35:04;16.91;43.12
78896;HTU21D;68284;59.124;37.910;2023-05-19T13:37:30;17.06;42.62
78896;HTU21D;68284;59.124;37.910;2023-05-19T13:39:56;17.23;42.41
78896;HTU21D;68284;59.124;37.910;2023-05-19T13:42:23;17.46;42.30
78896;HTU21D;68284;59.124;37.910;2023-05-19T13:44:53;17.70;41.95
78896;HTU21D;68284;59.124;37.910;2023-05-19T13:47:20;17.91;41.67
78896;HTU21D;68284;59.124;37.910;2023-05-19T13:49:46;17.96;41.56
78896;HTU21D;68284;59.124;37.910;2023-05-19T13:52:12;17.95;41.61
78896;HTU21D;68284;59.124;37.910;2023-05-19T13:54:39;17.88;41.66
78896;HTU21D;68284;59.124;37.910;2023-05-19T13:57:05;17.69;41.71
78896;HTU21D;68284;59.124;37.910;2023-05-19T13:59:32;17.44;41.79
78896;HTU21D;68284;59.124;37.910;2023-05-19T14:01:59;17.14;42.16
78896;HTU21D;68284;59.124;37.910;2023-05-19T14:04:27;16.90;42.68
78896;HTU21D;68284;59.124;37.910;2023-05-19T14:06:54;16.70;43.14
78896;HTU21D;68284;59.124;37.910;2023-05-19T14:09:20;16.55;43.70
78896;HTU21D;68284;59.124;37.910;2023-05-19T14:11:46;16.44;44.17
78896;HTU21D;68284;59.124;37.910;2023-05-19T14:14:12;16.33;44.53
78896;HTU21D;68284;59.124;37.910;2023-05-19T14:16:39;16.21;44.91
78896;HTU21D;68284;59.124;37.910;2023-05-19T14:19:05;16.10;45.06
78896;HTU21D;68284;59.124;37.910;2023-05-19T14:21:32;16.02;45.19
78896;HTU21D;68284;59.124;37.910;2023-05-19T14:23:58;15.92;45.46
78896;HTU21D;68284;59.124;37.910;2023-05-19T14:26:24;15.84;45.94
78896;HTU21D;68284;59.124;37.910;2023-05-19T14:28:51;15.78;46.39
78896;HTU21D;68284;59.124;37.910;2023-05-19T14:31:17;15.73;46.86
78896;HTU21D;68284;59.124;37.910;2023-05-19T14:33:43;15.66;47.20
78896;HTU21D;68284;59.124;37.910;2023-05-19T14:36:09;15.62;47.67
78896;HTU21D;68284;59.124;37.910;2023-05-19T14:38:35;15.57;47.32
78896;HTU21D;68284;59.124;37.910;2023-05-19T14:41:02;15.53;47.58
78896;HTU21D;68284;59.124;37.910;2023-05-19T14:43:28;15.55;47.89
78896;HTU21D;68284;59.124;37.910;2023-05-19T14:45:55;15.56;48.03
78896;HTU21D;68284;59.124;37.910;2023-05-19T14:48:21;15.54;47.98
78896;HTU21D;68284;59.124;37.910;2023-05-19T14:50:47;15.55;48.31
78896;HTU21D;68284;59.124;37.910;2023-05-19T14:53:13;15.55;48.35
78896;HTU21D;68284;59.124;37.910;2023-05-19T14:55:41;15.53;48.27
78896;HTU21D;68284;59.124;37.910;2023-05-19T14:58:07;15.53;48.40
78896;HTU21D;68284;59.124;37.910;2023-05-19T15:00:34;15.53;48.54
78896;HTU21D;68284;59.124;37.910;2023-05-19T15:03:01;15.48;48.56
78896;HTU21D;68284;59.124;37.910;2023-05-19T15:05:27;15.52;48.47
78896;HTU21D;68284;59.124;37.910;2023-05-19T15:07:53;15.56;48.37
78896;HTU21D;68284;59.124;37.910;2023-05-19T15:10:19;15.57;48.18
78896;HTU21D;68284;59.124;37.910;2023-05-19T15:12:45;15.58;48.21
78896;HTU21D;68284;59.124;37.910;2023-05-19T15:15:12;15.59;48.37
78896;HTU21D;68284;59.124;37.910;2023-05-19T15:17:39;15.59;48.44
78896;HTU21D;68284;59.124;37.910;2023-05-19T15:20:05;15.58;48.40
78896;HTU21D;68284;59.124;37.910;2023-05-19T15:22:31;15.56;48.31
78896;HTU21D;68284;59.124;37.910;2023-05-19T15:24:58;15.55;48.38
78896;HTU21D;68284;59.124;37.910;2023-05-19T15:27:24;15.52;48.73
78896;HTU21D;68284;59.124;37.910;2023-05-19T15:29:50;15.44;48.97
78896;HTU21D;68284;59.124;37.910;2023-05-19T15:32:16;15.32;49.53
78896;HTU21D;68284;59.124;37.910;2023-05-19T15:34:43;15.23;50.01
78896;HTU21D;68284;59.124;37.910;2023-05-19T15:37:09;15.15;50.26